createdAt,value
2016-04-08T00:00:35.321Z,46.69
2016-04-08T00:01:35.323Z,46.59
2016-04-08T00:02:35.342Z,46.59
2016-04-08T00:03:35.360Z,46.49
2016-04-08T00:04:35.348Z,46.49
2016-04-08T00:05:35.350Z,46.59
2016-04-08T00:06:35.353Z,46.59
2016-04-08T00:07:35.371Z,46.59
2016-04-08T00:08:35.359Z,46.59
2016-04-08T00:09:35.376Z,46.59
2016-04-08T00:10:35.426Z,46.49
2016-04-08T00:11:35.398Z,46.49
2016-04-08T00:12:35.401Z,46.59
2016-04-08T00:13:35.391Z,46.49
2016-04-08T00:14:35.410Z,46.78
2016-04-08T00:15:35.412Z,46.49
2016-04-08T00:16:35.446Z,46.59
2016-04-08T00:17:35.418Z,46.59
2016-04-08T00:18:35.436Z,46.49
2016-04-08T00:19:35.470Z,46.69
2016-04-08T00:20:35.457Z,46.49
2016-04-08T00:21:35.444Z,46.59
2016-04-08T00:22:35.446Z,46.49
2016-04-08T00:23:35.449Z,46.59
2016-04-08T00:24:35.467Z,46.4
2016-04-08T00:25:35.470Z,46.69
2016-04-08T00:26:35.489Z,46.59
2016-04-08T00:27:35.475Z,46.49
2016-04-08T00:28:35.494Z,46.49
2016-04-08T00:29:35.496Z,46.78
2016-04-08T00:30:34.764Z,46.59
2016-04-08T00:31:35.502Z,46.4
2016-04-08T00:32:35.551Z,46.59
2016-04-08T00:33:35.523Z,46.59
2016-04-08T00:34:35.525Z,46.49
2016-04-08T00:35:35.544Z,46.49
2016-04-08T00:36:35.531Z,46.69
2016-04-08T00:37:35.549Z,46.49
2016-04-08T00:38:34.818Z,46.69
2016-04-08T00:39:35.555Z,46.49
2016-04-08T00:40:35.557Z,46.49
2016-04-08T00:41:35.560Z,46.59
2016-04-08T00:42:35.578Z,46.59
2016-04-08T00:43:35.581Z,46.59
2016-04-08T00:44:35.599Z,46.4
2016-04-08T00:45:35.617Z,46.59
2016-04-08T00:46:35.589Z,46.59
2016-04-08T00:47:35.607Z,46.69
2016-04-08T00:48:35.610Z,46.59
2016-04-08T00:49:35.613Z,46.4
2016-04-08T00:50:35.631Z,46.59
2016-04-08T00:51:35.634Z,46.59
2016-04-08T00:52:35.636Z,46.4
2016-04-08T00:53:35.639Z,46.4
2016-04-08T00:54:35.642Z,46.69
2016-04-08T00:55:35.659Z,46.49
2016-04-08T00:56:35.663Z,46.59
2016-04-08T00:57:35.665Z,46.59
2016-04-08T00:58:35.684Z,46.49
2016-04-08T00:59:35.686Z,46.59
2016-04-08T01:00:35.689Z,46.78
2016-04-08T01:01:35.692Z,46.4
2016-04-08T01:02:35.710Z,46.59
2016-04-08T01:03:35.713Z,46.59
2016-04-08T01:04:35.731Z,46.69
2016-04-08T01:05:35.718Z,46.78
2016-04-08T01:06:35.721Z,46.4
2016-04-08T01:07:35.724Z,46.59
2016-04-08T01:08:35.726Z,46.59
2016-04-08T01:09:35.745Z,46.4
2016-04-08T01:10:35.747Z,46.69
2016-04-08T01:11:35.750Z,46.4
2016-04-08T01:12:35.769Z,46.49
2016-04-08T01:13:35.771Z,46.59
2016-04-08T01:14:35.774Z,46.3
2016-04-08T01:15:35.776Z,46.69
2016-04-08T01:16:35.779Z,46.3
2016-04-08T01:17:35.798Z,46.59
2016-04-08T01:18:35.800Z,46.59
2016-04-08T01:19:35.803Z,46.4
2016-04-08T01:20:35.820Z,46.4
2016-04-08T01:21:35.808Z,46.59
2016-04-08T01:22:35.826Z,46.4
2016-04-08T01:23:35.829Z,46.3
2016-04-08T01:24:35.832Z,46.59
2016-04-08T01:25:35.850Z,46.59
2016-04-08T01:26:35.837Z,46.49
2016-04-08T01:27:35.855Z,46.4
2016-04-08T01:28:35.858Z,46.4
2016-04-08T01:29:35.861Z,46.4
2016-04-08T01:30:35.863Z,46.4
2016-04-08T01:31:35.866Z,46.4
2016-04-08T01:32:35.884Z,46.4
2016-04-08T01:33:35.887Z,46.49
2016-04-08T01:34:35.890Z,46.4
2016-04-08T01:35:35.909Z,46.4
2016-04-08T01:36:35.895Z,46.49
2016-04-08T01:37:35.914Z,46.4
2016-04-08T01:38:35.916Z,46.4
2016-04-08T01:39:35.919Z,46.59
2016-04-08T01:40:35.938Z,46.4
2016-04-08T01:41:35.940Z,46.49
2016-04-08T01:42:35.943Z,46.49
2016-04-08T01:43:35.960Z,46.3
2016-04-08T01:44:35.948Z,46.49
2016-04-08T01:45:35.966Z,46.4
2016-04-08T01:46:35.969Z,46.59
2016-04-08T01:47:35.972Z,46.4
2016-04-08T01:48:35.974Z,46.4
2016-04-08T01:49:36.009Z,46.69
2016-04-08T01:50:35.995Z,46.49
2016-04-08T01:51:36.014Z,46.4
2016-04-08T01:52:36.017Z,46.49
2016-04-08T01:53:36.003Z,46.4
2016-04-08T01:54:36.022Z,46.49
2016-04-08T01:55:36.024Z,46.59
2016-04-08T01:56:36.042Z,46.69
2016-04-08T01:57:36.045Z,46.49
2016-04-08T01:58:36.033Z,46.69
2016-04-08T01:59:36.051Z,46.49
2016-04-08T02:00:36.053Z,46.59
2016-04-08T02:01:36.056Z,46.59
2016-04-08T02:02:36.059Z,46.4
2016-04-08T02:03:36.078Z,46.4
2016-04-08T02:04:36.064Z,46.4
2016-04-08T02:05:36.083Z,46.4
2016-04-08T02:06:36.100Z,46.4
2016-04-08T02:07:36.088Z,46.4
2016-04-08T02:08:36.104Z,46.4
2016-04-08T02:09:36.107Z,46.69
2016-04-08T02:10:36.110Z,46.3
2016-04-08T02:11:36.144Z,46.4
2016-04-08T02:12:36.147Z,46.4
2016-04-08T02:13:36.133Z,46.4
2016-04-08T02:14:36.136Z,46.49
2016-04-08T02:15:36.139Z,46.49
2016-04-08T02:16:36.141Z,46.4
2016-04-08T02:17:36.160Z,46.49
2016-04-08T02:18:36.162Z,46.49
2016-04-08T02:19:36.165Z,46.49
2016-04-08T02:20:36.183Z,46.4
2016-04-08T02:21:36.170Z,46.4
2016-04-08T02:22:36.188Z,46.49
2016-04-08T02:23:36.191Z,46.69
2016-04-08T02:24:36.210Z,46.59
2016-04-08T02:25:36.213Z,46.49
2016-04-08T02:26:36.216Z,46.4
2016-04-08T02:27:36.218Z,46.49
2016-04-08T02:28:36.221Z,46.4
2016-04-08T02:29:36.223Z,46.59
2016-04-08T02:30:36.226Z,46.49
2016-04-08T02:31:36.244Z,46.49
2016-04-08T02:32:36.262Z,46.49
2016-04-08T02:33:36.265Z,46.59
2016-04-08T02:34:36.268Z,46.4
2016-04-08T02:35:36.256Z,46.49
2016-04-08T02:36:36.273Z,46.59
2016-04-08T02:37:36.276Z,46.49
2016-04-08T02:38:36.295Z,46.78
2016-04-08T02:39:36.297Z,46.4
2016-04-08T02:40:36.300Z,46.4
2016-04-08T02:41:36.302Z,46.49
2016-04-08T02:42:36.305Z,46.49
2016-04-08T02:43:36.308Z,46.59
2016-04-08T02:44:36.325Z,46.4
2016-04-08T02:45:36.328Z,46.69
2016-04-08T02:46:36.331Z,46.49
2016-04-08T02:47:36.334Z,46.4
2016-04-08T02:48:36.336Z,46.49
2016-04-08T02:49:36.339Z,46.49
2016-04-08T02:50:36.358Z,46.59
2016-04-08T02:51:36.361Z,46.3
2016-04-08T02:52:36.379Z,46.49
2016-04-08T02:53:36.382Z,46.49
2016-04-08T02:54:36.385Z,46.4
2016-04-08T02:55:36.402Z,46.37
2016-04-08T02:56:36.405Z,46.59
2016-04-08T02:57:36.392Z,46.49
2016-04-08T02:58:36.395Z,46.49
2016-04-08T02:59:36.413Z,46.59
2016-04-08T03:00:36.416Z,46.59
2016-04-08T03:01:36.419Z,46.59
2016-04-08T03:02:36.421Z,46.59
2016-04-08T03:03:36.440Z,46.4
2016-04-08T03:04:36.458Z,46.4
2016-04-08T03:05:36.445Z,46.47
2016-04-08T03:06:36.464Z,46.4
2016-04-08T03:07:36.466Z,46.59
2016-04-08T03:08:36.562Z,46.49
2016-04-08T03:09:36.486Z,46.59
2016-04-08T03:10:36.489Z,46.4
2016-04-08T03:11:36.477Z,46.69
2016-04-08T03:12:36.494Z,46.59
2016-04-08T03:13:36.514Z,46.4
2016-04-08T03:14:36.516Z,46.59
2016-04-08T03:15:36.503Z,46.37
2016-04-08T03:16:36.506Z,46.4
2016-04-08T03:17:36.539Z,46.3
2016-04-08T03:18:36.527Z,46.69
2016-04-08T03:19:36.545Z,46.69
2016-04-08T03:20:36.532Z,46.69
2016-04-08T03:21:36.535Z,46.69
2016-04-08T03:22:36.569Z,46.4
2016-04-08T03:23:36.572Z,46.59
2016-04-08T03:24:36.559Z,46.49
2016-04-08T03:25:36.577Z,46.4
2016-04-08T03:26:36.580Z,46.4
2016-04-08T03:27:36.583Z,46.49
2016-04-08T03:28:36.601Z,46.56
2016-04-08T03:29:35.854Z,46.69
2016-04-08T03:30:36.590Z,46.69
2016-04-08T03:31:36.609Z,46.47
2016-04-08T03:32:36.611Z,46.59
2016-04-08T03:33:36.614Z,46.4
2016-04-08T03:34:36.665Z,46.69
2016-04-08T03:35:36.712Z,46.78
2016-04-08T03:36:36.759Z,46.59
2016-04-08T03:37:36.805Z,46.4
2016-04-08T03:38:36.852Z,46.59
2016-04-08T03:39:36.877Z,46.59
2016-04-08T03:40:36.895Z,46.49
2016-04-08T03:41:36.929Z,46.4
2016-04-08T03:42:36.948Z,46.59
2016-04-08T03:43:36.966Z,46.76
2016-04-08T03:44:36.977Z,46.59
2016-04-08T03:45:37.001Z,46.47
2016-04-08T03:46:37.008Z,46.4
2016-04-08T03:47:37.016Z,46.59
2016-04-08T03:48:37.024Z,46.59
2016-04-08T03:49:37.045Z,46.69
2016-04-08T03:50:37.050Z,46.37
2016-04-08T03:51:37.055Z,46.59
2016-04-08T03:52:37.059Z,46.69
2016-04-08T03:53:37.064Z,46.4
2016-04-08T03:54:37.068Z,46.78
2016-04-08T03:55:37.071Z,46.47
2016-04-08T03:56:37.105Z,46.78
2016-04-08T03:57:37.109Z,46.59
2016-04-08T03:58:37.097Z,46.28
2016-04-08T03:59:37.100Z,46.59
2016-04-08T04:00:37.118Z,46.47
2016-04-08T04:01:37.122Z,46.4
2016-04-08T04:02:37.125Z,46.49
2016-04-08T04:03:37.128Z,46.56
2016-04-08T04:04:37.131Z,46.4
2016-04-08T04:05:37.008Z,46.49
2016-04-08T04:06:37.011Z,46.56
2016-04-08T04:07:37.154Z,46.69
2016-04-08T04:08:37.173Z,46.49
2016-04-08T04:09:37.176Z,46.4
2016-04-08T04:10:37.178Z,46.4
2016-04-08T04:11:37.181Z,46.4
2016-04-08T04:12:37.184Z,46.49
2016-04-08T04:13:37.201Z,46.4
2016-04-08T04:14:37.205Z,46.3
2016-04-08T04:15:37.207Z,46.49
2016-04-08T04:16:37.226Z,46.59
2016-04-08T04:17:37.229Z,46.49
2016-04-08T04:18:37.231Z,46.49
2016-04-08T04:19:37.234Z,46.3
2016-04-08T04:20:37.220Z,46.66
2016-04-08T04:21:37.255Z,46.4
2016-04-08T04:22:36.508Z,46.49
2016-04-08T04:23:37.261Z,46.4
2016-04-08T04:24:37.278Z,46.3
2016-04-08T04:25:37.266Z,46.47
2016-04-08T04:26:37.268Z,46.47
2016-04-08T04:27:37.271Z,46.47
2016-04-08T04:28:37.289Z,46.4
2016-04-08T04:29:37.292Z,46.37
2016-04-08T04:30:37.311Z,46.49
2016-04-08T04:31:37.297Z,46.37
2016-04-08T04:32:37.300Z,46.47
2016-04-08T04:33:37.318Z,46.49
2016-04-08T04:34:37.321Z,46.37
2016-04-08T04:35:37.324Z,46.4
2016-04-08T04:36:37.326Z,46.4
2016-04-08T04:37:37.344Z,46.59
2016-04-08T04:38:37.347Z,46.49
2016-04-08T04:39:37.350Z,46.47
2016-04-08T04:40:37.353Z,46.47
2016-04-08T04:41:36.621Z,46.47
2016-04-08T04:42:37.374Z,46.37
2016-04-08T04:43:37.376Z,46.37
2016-04-08T04:44:37.379Z,46.37
2016-04-08T04:45:37.398Z,46.56
2016-04-08T04:46:37.384Z,46.4
2016-04-08T04:47:37.403Z,46.56
2016-04-08T04:48:37.248Z,46.37
2016-04-08T04:49:37.408Z,46.37
2016-04-08T04:50:37.411Z,46.56
2016-04-08T04:51:37.429Z,46.28
2016-04-08T04:52:37.431Z,46.47
2016-04-08T04:53:37.435Z,46.4
2016-04-08T04:54:37.437Z,46.37
2016-04-08T04:55:37.456Z,46.59
2016-04-08T04:56:37.443Z,46.28
2016-04-08T04:57:37.445Z,46.37
2016-04-08T04:58:37.464Z,46.28
2016-04-08T04:59:37.466Z,46.37
2016-04-08T05:00:37.469Z,46.47
2016-04-08T05:01:37.472Z,46.47
2016-04-08T05:02:37.490Z,46.3
2016-04-08T05:03:37.493Z,46.37
2016-04-08T05:04:37.510Z,46.47
2016-04-08T05:05:37.498Z,46.4
2016-04-08T05:06:37.516Z,46.37
2016-04-08T05:07:37.519Z,46.37
2016-04-08T05:08:37.522Z,46.47
2016-04-08T05:09:37.540Z,46.56
2016-04-08T05:10:37.527Z,46.49
2016-04-08T05:11:37.546Z,46.47
2016-04-08T05:12:37.548Z,46.47
2016-04-08T05:13:37.551Z,46.37
2016-04-08T05:14:37.554Z,46.37
2016-04-08T05:15:37.587Z,46.59
2016-04-08T05:16:37.575Z,46.47
2016-04-08T05:17:37.577Z,46.3
2016-04-08T05:18:37.580Z,46.4
2016-04-08T05:19:37.583Z,46.37
2016-04-08T05:20:37.585Z,46.4
2016-04-08T05:21:37.604Z,46.28
2016-04-08T05:22:37.606Z,46.49
2016-04-08T05:23:37.609Z,46.69
2016-04-08T05:24:37.956Z,46.47
2016-04-08T05:25:37.630Z,46.47
2016-04-08T05:26:37.633Z,46.56
2016-04-08T05:27:37.635Z,46.37
2016-04-08T05:28:37.638Z,46.56
2016-04-08T05:29:37.641Z,46.49
2016-04-08T05:30:37.659Z,46.49
2016-04-08T05:31:37.662Z,46.4
2016-04-08T05:32:37.664Z,46.56
2016-04-08T05:33:37.667Z,46.59
2016-04-08T05:34:37.670Z,46.37
2016-04-08T05:35:37.689Z,46.47
2016-04-08T05:36:37.691Z,46.47
2016-04-08T05:37:37.694Z,46.49
2016-04-08T05:38:37.696Z,46.59
2016-04-08T05:39:37.699Z,46.49
2016-04-08T05:40:37.718Z,46.59
2016-04-08T05:41:37.720Z,46.37
2016-04-08T05:42:37.723Z,46.49
2016-04-08T05:43:37.740Z,46.56
2016-04-08T05:44:37.743Z,46.47
2016-04-08T05:45:37.746Z,46.56
2016-04-08T05:46:37.748Z,46.66
2016-04-08T05:47:37.768Z,46.4
2016-04-08T05:48:37.770Z,46.49
2016-04-08T05:49:37.757Z,46.49
2016-04-08T05:50:37.776Z,46.56
2016-04-08T05:51:37.950Z,46.49
2016-04-08T05:52:37.778Z,46.59
2016-04-08T05:53:37.796Z,46.59
2016-04-08T05:54:37.783Z,46.47
2016-04-08T05:55:37.801Z,46.59
2016-04-08T05:56:37.820Z,46.59
2016-04-08T05:57:37.806Z,46.4
2016-04-08T05:58:37.825Z,46.49
2016-04-08T05:59:37.828Z,46.59
2016-04-08T06:00:37.831Z,46.49
2016-04-08T06:01:37.834Z,46.66
2016-04-08T06:02:37.836Z,46.47
2016-04-08T06:03:37.839Z,46.56
2016-04-08T06:04:37.858Z,46.59
2016-04-08T06:05:37.860Z,46.49
2016-04-08T06:06:37.863Z,46.69
2016-04-08T06:07:37.866Z,46.49
2016-04-08T06:08:37.883Z,46.49
2016-04-08T06:09:37.886Z,46.59
2016-04-08T06:10:37.888Z,46.47
2016-04-08T06:11:37.907Z,46.59
2016-04-08T06:12:37.894Z,46.56
2016-04-08T06:13:37.913Z,46.28
2016-04-08T06:14:37.915Z,46.69
2016-04-08T06:15:37.950Z,46.78
2016-04-08T06:16:37.937Z,46.69
2016-04-08T06:17:37.924Z,46.69
2016-04-08T06:18:37.926Z,46.56
2016-04-08T06:19:37.945Z,46.4
2016-04-08T06:20:37.948Z,46.78
2016-04-08T06:21:37.950Z,46.78
2016-04-08T06:22:37.968Z,46.59
2016-04-08T06:23:37.956Z,46.4
2016-04-08T06:24:37.973Z,46.59
2016-04-08T06:25:37.976Z,46.59
2016-04-08T06:26:37.978Z,46.59
2016-04-08T06:27:37.997Z,46.49
2016-04-08T06:28:37.984Z,46.49
2016-04-08T06:29:38.002Z,46.3
2016-04-08T06:30:38.005Z,46.49
2016-04-08T06:31:38.008Z,46.76
2016-04-08T06:32:38.011Z,46.66
2016-04-08T06:33:38.014Z,46.69
2016-04-08T06:34:38.032Z,46.69
2016-04-08T06:35:38.034Z,46.59
2016-04-08T06:36:38.037Z,46.49
2016-04-08T06:37:38.056Z,46.49
2016-04-08T06:38:38.059Z,46.4
2016-04-08T06:39:38.045Z,46.49
2016-04-08T06:40:37.908Z,46.76
2016-04-08T06:41:38.083Z,46.47
2016-04-08T06:42:38.085Z,46.49
2016-04-08T06:43:38.088Z,46.47
2016-04-08T06:44:38.091Z,46.3
2016-04-08T06:45:38.093Z,46.28
2016-04-08T06:46:38.111Z,46.69
2016-04-08T06:47:38.114Z,46.47
2016-04-08T06:48:38.117Z,46.59
2016-04-08T06:49:38.119Z,46.37
2016-04-08T06:50:38.122Z,46.49
2016-04-08T06:51:38.374Z,46.4
2016-04-08T06:52:38.143Z,46.49
2016-04-08T06:53:38.145Z,46.37
2016-04-08T06:54:38.148Z,46.3
2016-04-08T06:55:38.151Z,46.4
2016-04-08T06:56:38.170Z,46.3
2016-04-08T06:57:38.172Z,46.3
2016-04-08T06:58:38.175Z,46.49
2016-04-08T06:59:38.178Z,46.4
2016-04-08T07:00:38.185Z,46.56
2016-04-08T07:01:38.187Z,46.4
2016-04-08T07:02:38.190Z,46.49
2016-04-08T07:03:38.208Z,46.4
2016-04-08T07:04:38.211Z,46.49
2016-04-08T07:05:38.213Z,46.3
2016-04-08T07:06:38.216Z,46.37
2016-04-08T07:07:38.219Z,46.47
2016-04-08T07:08:38.379Z,46.28
2016-04-08T07:09:38.241Z,46.49
2016-04-08T07:10:38.245Z,46.4
2016-04-08T07:11:38.262Z,46.47
2016-04-08T07:12:38.265Z,46.49
2016-04-08T07:13:38.252Z,46.37
2016-04-08T07:14:38.271Z,46.49
2016-04-08T07:15:38.273Z,46.47
2016-04-08T07:16:38.120Z,46.47
2016-04-08T07:17:38.294Z,46.47
2016-04-08T07:18:38.281Z,46.49
2016-04-08T07:19:38.300Z,46.18
2016-04-08T07:20:38.302Z,46.3
2016-04-08T07:21:38.305Z,46.3
2016-04-08T07:22:38.307Z,46.28
2016-04-08T07:23:38.327Z,46.2
2016-04-08T07:24:38.172Z,46.2
2016-04-08T07:25:38.347Z,46.18
2016-04-08T07:26:38.335Z,46.2
2016-04-08T07:27:38.352Z,46.2
2016-04-08T07:28:38.371Z,46.37
2016-04-08T07:29:38.357Z,46.18
2016-04-08T07:30:38.377Z,46.18
2016-04-08T07:31:38.363Z,46.2
2016-04-08T07:32:38.365Z,46.2
2016-04-08T07:33:38.399Z,46.3
2016-04-08T07:34:38.387Z,46.3
2016-04-08T07:35:38.390Z,46.4
2016-04-08T07:36:38.392Z,46.2
2016-04-08T07:37:38.395Z,46.2
2016-04-08T07:38:38.413Z,46.11
2016-04-08T07:39:38.416Z,46.2
2016-04-08T07:40:38.418Z,46.4
2016-04-08T07:41:38.421Z,46.01
2016-04-08T07:42:38.424Z,46.3
2016-04-08T07:43:38.443Z,46.49
2016-04-08T07:44:38.445Z,46.2
2016-04-08T07:45:38.447Z,46.3
2016-04-08T07:46:38.466Z,46.49
2016-04-08T07:47:38.453Z,46.49
2016-04-08T07:48:38.472Z,46.3
2016-04-08T07:49:38.475Z,46.49
2016-04-08T07:50:38.493Z,46.4
2016-04-08T07:51:38.495Z,46.59
2016-04-08T07:52:38.513Z,46.49
2016-04-08T07:53:38.501Z,46.59
2016-04-08T07:54:38.519Z,46.11
2016-04-08T07:55:38.506Z,46.3
2016-04-08T07:56:38.524Z,46.01
2016-04-08T07:57:38.527Z,46.2
2016-04-08T07:58:38.530Z,46.01
2016-04-08T07:59:38.532Z,46.01
2016-04-08T08:00:38.551Z,46.2
2016-04-08T08:01:38.554Z,46.2
2016-04-08T08:02:38.556Z,46.2
2016-04-08T08:03:38.559Z,46.2
2016-04-08T08:04:38.592Z,46.78
2016-04-08T08:05:38.565Z,46.97
2016-04-08T08:06:38.582Z,47.27
2016-04-08T08:07:38.601Z,46.4
2016-04-08T08:08:38.587Z,46.69
2016-04-08T08:09:38.606Z,46.49
2016-04-08T08:10:38.609Z,46.4
2016-04-08T08:11:38.611Z,46.49
2016-04-08T08:12:38.615Z,46.59
2016-04-08T08:13:38.742Z,46.59
2016-04-08T08:14:39.104Z,46.4
2016-04-08T08:15:38.637Z,46.69
2016-04-08T08:16:38.640Z,46.69
2016-04-08T08:17:38.643Z,46.69
2016-04-08T08:18:38.645Z,46.4
2016-04-08T08:19:38.664Z,46.59
2016-04-08T08:20:38.683Z,46.88
2016-04-08T08:21:38.670Z,46.59
2016-04-08T08:22:38.688Z,46.3
2016-04-08T08:23:38.691Z,46.42
2016-04-08T08:24:38.819Z,46.49
2016-04-08T08:25:38.696Z,46.42
2016-04-08T08:26:38.714Z,46.49
2016-04-08T08:27:38.717Z,46.4
2016-04-08T08:28:38.720Z,46.2
2016-04-08T08:29:38.722Z,46.33
2016-04-08T08:30:38.740Z,46.33
2016-04-08T08:31:38.744Z,46.13
2016-04-08T08:32:38.746Z,46.23
2016-04-08T08:33:38.749Z,46.13
2016-04-08T08:34:38.752Z,46.33
2016-04-08T08:35:38.770Z,46.23
2016-04-08T08:36:38.773Z,46.33
2016-04-08T08:37:38.776Z,46.42
2016-04-08T08:38:38.778Z,46.42
2016-04-08T08:39:38.781Z,46.51
2016-04-08T08:40:38.798Z,46.33
2016-04-08T08:41:38.801Z,46.23
2016-04-08T08:42:38.804Z,46.13
2016-04-08T08:43:38.666Z,46.23
2016-04-08T08:44:38.887Z,46.23
2016-04-08T08:45:38.843Z,46.33
2016-04-08T08:46:38.831Z,46.13
2016-04-08T08:47:38.848Z,46.23
2016-04-08T08:48:38.867Z,46.23
2016-04-08T08:49:38.854Z,46.13
2016-04-08T08:50:38.856Z,46.13
2016-04-08T08:51:38.859Z,46.23
2016-04-08T08:52:38.877Z,46.23
2016-04-08T08:53:38.912Z,46.33
2016-04-08T08:54:38.883Z,46.13
2016-04-08T08:55:39.214Z,46.23
2016-04-08T08:56:38.905Z,46.03
2016-04-08T08:57:38.907Z,46.13
2016-04-08T08:58:38.910Z,46.13
2016-04-08T08:59:38.975Z,46.13
2016-04-08T09:00:38.930Z,46.23
2016-04-08T09:01:38.933Z,46.23
2016-04-08T09:02:38.935Z,46.42
2016-04-08T09:03:38.939Z,46.33
2016-04-08T09:04:38.957Z,46.23
2016-04-08T09:05:38.960Z,46.13
2016-04-08T09:06:38.963Z,46.33
2016-04-08T09:07:38.981Z,46.23
2016-04-08T09:08:38.968Z,46.13
2016-04-08T09:09:38.986Z,46.23
2016-04-08T09:10:38.990Z,46.23
2016-04-08T09:11:38.992Z,46.13
2016-04-08T09:12:39.009Z,45.94
2016-04-08T09:13:39.012Z,46.33
2016-04-08T09:14:39.078Z,46.33
2016-04-08T09:15:39.018Z,46.23
2016-04-08T09:16:39.256Z,46.13
2016-04-08T09:17:39.023Z,46.13
2016-04-08T09:18:39.056Z,46.23
2016-04-08T09:19:39.059Z,46.23
2016-04-08T09:20:39.094Z,46.13
2016-04-08T09:21:39.065Z,45.94
2016-04-08T09:22:39.067Z,45.94
2016-04-08T09:23:39.086Z,46.13
2016-04-08T09:24:39.089Z,45.96
2016-04-08T09:25:39.107Z,46.06
2016-04-08T09:26:39.095Z,45.94
2016-04-08T09:27:39.113Z,46.03
2016-04-08T09:28:39.115Z,45.96
2016-04-08T09:29:39.150Z,45.94
2016-04-08T09:30:39.121Z,46.25
2016-04-08T09:31:39.139Z,46.44
2016-04-08T09:32:39.141Z,46.34
2016-04-08T09:33:39.144Z,46.44
2016-04-08T09:34:39.163Z,46.54
2016-04-08T09:35:39.166Z,46.42
2016-04-08T09:36:39.169Z,46.51
2016-04-08T09:37:39.171Z,46.51
2016-04-08T09:38:39.189Z,46.33
2016-04-08T09:39:39.176Z,46.42
2016-04-08T09:40:39.195Z,46.33
2016-04-08T09:41:39.197Z,46.33
2016-04-08T09:42:39.200Z,46.44
2016-04-08T09:43:39.218Z,46.51
2016-04-08T09:44:39.220Z,46.34
2016-04-08T09:45:39.223Z,46.33
2016-04-08T09:46:39.242Z,46.51
2016-04-08T09:47:39.229Z,46.51
2016-04-08T09:48:39.247Z,46.61
2016-04-08T09:49:39.250Z,46.42
2016-04-08T09:50:39.253Z,46.42
2016-04-08T09:51:39.255Z,46.51
2016-04-08T09:52:39.258Z,46.42
2016-04-08T09:53:39.276Z,46.33
2016-04-08T09:54:39.278Z,46.51
2016-04-08T09:55:39.298Z,46.42
2016-04-08T09:56:39.300Z,46.51
2016-04-08T09:57:39.306Z,46.42
2016-04-08T09:58:39.309Z,46.51
2016-04-08T09:59:39.312Z,46.51
2016-04-08T10:00:39.331Z,46.42
2016-04-08T10:01:39.334Z,46.23
2016-04-08T10:02:39.336Z,46.33
2016-04-08T10:03:39.339Z,46.33
2016-04-08T10:04:39.342Z,46.23
2016-04-08T10:05:39.359Z,46.33
2016-04-08T10:06:39.362Z,46.23
2016-04-08T10:07:39.364Z,46.23
2016-04-08T10:08:39.367Z,46.13
2016-04-08T10:09:39.386Z,45.94
2016-04-08T10:10:39.388Z,45.65
2016-04-08T10:11:39.392Z,45.45
2016-04-08T10:12:39.394Z,45.55
2016-04-08T10:13:39.411Z,45.55
2016-04-08T10:14:39.430Z,45.28
2016-04-08T10:15:39.417Z,44.22
2016-04-08T10:16:39.420Z,43.62
2016-04-08T10:17:39.438Z,43.91
2016-04-08T10:18:39.472Z,43.52
2016-04-08T10:19:39.444Z,43.33
2016-04-08T10:20:39.446Z,43.24
2016-04-08T10:21:39.466Z,42.85
2016-04-08T10:22:39.468Z,42.36
2016-04-08T10:23:39.470Z,42.27
2016-04-08T10:24:39.489Z,42.27
2016-04-08T10:25:39.491Z,42.18
2016-04-08T10:26:39.494Z,41.4
2016-04-08T10:27:39.496Z,42.27
2016-04-08T10:28:39.499Z,41.6
2016-04-08T10:29:39.518Z,41.2
2016-04-08T10:30:39.521Z,41.02
2016-04-08T10:31:39.523Z,41.02
2016-04-08T10:32:39.541Z,40.82
2016-04-08T10:33:39.544Z,40.82
2016-04-08T10:34:39.562Z,40.63
2016-04-08T10:35:39.550Z,40.34
2016-04-08T10:36:39.567Z,40.53
2016-04-08T10:37:39.570Z,41.3
2016-04-08T10:38:39.573Z,41.4
2016-04-08T10:39:39.576Z,40.92
2016-04-08T10:40:39.594Z,41.02
2016-04-08T10:41:39.597Z,40.44
2016-04-08T10:42:39.614Z,40.44
2016-04-08T10:43:39.618Z,40.63
2016-04-08T10:44:39.605Z,40.63
2016-04-08T10:45:39.623Z,40.72
2016-04-08T10:46:39.625Z,41.11
2016-04-08T10:47:39.628Z,41.2
2016-04-08T10:48:39.631Z,41.3
2016-04-08T10:49:39.650Z,41.5
2016-04-08T10:50:39.652Z,41.4
2016-04-08T10:51:39.654Z,41.3
2016-04-08T10:52:39.674Z,41.2
2016-04-08T10:53:39.660Z,41.88
2016-04-08T10:54:39.679Z,41.6
2016-04-08T10:55:39.681Z,41.3
2016-04-08T10:56:39.684Z,41.5
2016-04-08T10:57:39.546Z,41.69
2016-04-08T10:58:39.705Z,41.78
2016-04-08T10:59:39.724Z,41.88
2016-04-08T11:00:39.739Z,41.78
2016-04-08T11:01:39.584Z,42.1
2016-04-08T11:02:39.729Z,42.39
2016-04-08T11:03:39.747Z,42.27
2016-04-08T11:04:39.733Z,42.36
2016-04-08T11:05:39.753Z,42.46
2016-04-08T11:06:39.755Z,42.46
2016-04-08T11:07:39.758Z,42.48
2016-04-08T11:08:39.775Z,42.56
2016-04-08T11:09:39.778Z,42.27
2016-04-08T11:10:39.781Z,42.36
2016-04-08T11:11:39.784Z,42.36
2016-04-08T11:12:39.802Z,42.18
2016-04-08T11:13:39.789Z,42.27
2016-04-08T11:14:39.807Z,42.27
2016-04-08T11:15:39.810Z,42.75
2016-04-08T11:16:39.829Z,42.66
2016-04-08T11:17:39.832Z,42.75
2016-04-08T11:18:39.835Z,42.85
2016-04-08T11:19:39.837Z,42.85
2016-04-08T11:20:39.855Z,42.85
2016-04-08T11:21:39.858Z,42.85
2016-04-08T11:22:39.860Z,42.85
2016-04-08T11:23:39.862Z,42.94
2016-04-08T11:24:39.882Z,42.85
2016-04-08T11:25:39.884Z,42.85
2016-04-08T11:26:39.886Z,42.94
2016-04-08T11:27:39.889Z,42.94
2016-04-08T11:28:39.907Z,42.94
2016-04-08T11:29:39.910Z,43.04
2016-04-08T11:30:39.913Z,43.04
2016-04-08T11:31:39.915Z,42.94
2016-04-08T11:32:39.918Z,42.94
2016-04-08T11:33:39.936Z,43.14
2016-04-08T11:34:39.940Z,43.14
2016-04-08T11:35:39.942Z,43.14
2016-04-08T11:36:39.961Z,43.14
2016-04-08T11:37:39.948Z,43.14
2016-04-08T11:38:39.966Z,43.24
2016-04-08T11:39:39.969Z,43.14
2016-04-08T11:40:39.987Z,43.04
2016-04-08T11:41:39.989Z,43.24
2016-04-08T11:42:39.992Z,43.33
2016-04-08T11:43:39.995Z,43.33
2016-04-08T11:44:40.013Z,43.33
2016-04-08T11:45:39.999Z,43.33
2016-04-08T11:46:40.018Z,43.33
2016-04-08T11:47:40.022Z,43.33
2016-04-08T11:48:40.040Z,43.33
2016-04-08T11:49:40.027Z,43.33
2016-04-08T11:50:40.045Z,43.33
2016-04-08T11:51:40.048Z,43.43
2016-04-08T11:52:40.051Z,43.72
2016-04-08T11:53:40.069Z,43.52
2016-04-08T11:54:40.087Z,43.62
2016-04-08T11:55:40.073Z,43.52
2016-04-08T11:56:40.077Z,43.52
2016-04-08T11:57:40.095Z,43.43
2016-04-08T11:58:40.082Z,43.52
2016-04-08T11:59:40.101Z,43.43
2016-04-08T12:00:40.118Z,43.62
2016-04-08T12:01:40.106Z,43.43
2016-04-08T12:02:40.124Z,43.52
2016-04-08T12:03:40.126Z,43.72
2016-04-08T12:04:40.129Z,43.62
2016-04-08T12:05:40.147Z,44.1
2016-04-08T12:06:40.167Z,44.2
2016-04-08T12:07:40.153Z,44.22
2016-04-08T12:08:40.162Z,44.42
2016-04-08T12:09:40.165Z,44.22
2016-04-08T12:10:40.183Z,44.22
2016-04-08T12:11:40.170Z,44.32
2016-04-08T12:12:40.220Z,44.12
2016-04-08T12:13:40.191Z,44.2
2016-04-08T12:14:40.209Z,44.9
2016-04-08T12:15:40.212Z,44.42
2016-04-08T12:16:40.214Z,44.42
2016-04-08T12:17:40.217Z,44.8
2016-04-08T12:18:40.220Z,44.32
2016-04-08T12:19:40.238Z,44.42
2016-04-08T12:20:40.241Z,44.7
2016-04-08T12:21:40.243Z,44.22
2016-04-08T12:22:40.246Z,44.12
2016-04-08T12:23:40.249Z,44.22
2016-04-08T12:24:40.266Z,44.22
2016-04-08T12:25:40.269Z,44.7
2016-04-08T12:26:40.288Z,44.8
2016-04-08T12:27:40.274Z,44.7
2016-04-08T12:28:40.293Z,44.9
2016-04-08T12:29:40.296Z,45.38
2016-04-08T12:30:40.314Z,45.09
2016-04-08T12:31:40.317Z,44.9
2016-04-08T12:32:40.320Z,45.18
2016-04-08T12:33:40.338Z,45.09
2016-04-08T12:34:40.340Z,44.9
2016-04-08T12:35:40.343Z,45
2016-04-08T12:36:40.362Z,45.18
2016-04-08T12:37:40.364Z,45
2016-04-08T12:38:40.367Z,45.09
2016-04-08T12:39:40.370Z,45.09
2016-04-08T12:40:40.372Z,45
2016-04-08T12:41:40.432Z,45.09
2016-04-08T12:42:40.475Z,45.28
2016-04-08T12:43:40.519Z,45.18
2016-04-08T12:44:40.562Z,44.9
2016-04-08T12:45:40.605Z,45.18
2016-04-08T12:46:40.638Z,45.09
2016-04-08T12:47:40.671Z,45.18
2016-04-08T12:48:40.688Z,45.38
2016-04-08T12:49:40.689Z,45.48
2016-04-08T12:50:40.723Z,45.48
2016-04-08T12:51:40.731Z,45.38
2016-04-08T12:52:40.754Z,45.48
2016-04-08T12:53:40.747Z,45.57
2016-04-08T12:54:40.786Z,45.38
2016-04-08T12:55:40.778Z,45.38
2016-04-08T12:56:40.799Z,45.38
2016-04-08T12:57:40.803Z,45.38
2016-04-08T12:58:40.808Z,45.38